sensor_id;sensor_type;location;lat;lon;timestamp;temperature;humidity
15630;DHT22;7914;50.842;0.166;2022-12-11T00:01:14;-3.30;99.90
15630;DHT22;7914;50.842;0.166;2022-12-11T00:03:42;-3.30;99.90
15630;DHT22;7914;50.842;0.166;2022-12-11T00:06:10;-3.30;99.90
15630;DHT22;7914;50.842;0.166;2022-12-11T00:08:35;-3.40;99.90
15630;DHT22;7914;50.842;0.166;2022-12-11T00:11:01;-3.40;99.90
15630;DHT22;7914;50.842;0.166;2022-12-11T00:13:28;-3.30;99.90
15630;DHT22;7914;50.842;0.166;2022-12-11T00:15:53;-3.30;99.90
15630;DHT22;7914;50.842;0.166;2022-12-11T00:18:19;-3.30;99.90
15630;DHT22;7914;50.842;0.166;2022-12-11T00:20:45;-3.40;99.90
15630;DHT22;7914;50.842;0.166;2022-12-11T00:23:10;-3.30;99.90
15630;DHT22;7914;50.842;0.166;2022-12-11T00:25:46;-3.30;99.90
15630;DHT22;7914;50.842;0.166;2022-12-11T00:28:14;-3.30;99.90
15630;DHT22;7914;50.842;0.166;2022-12-11T00:30:41;-3.20;99.90
15630;DHT22;7914;50.842;0.166;2022-12-11T00:33:08;-3.10;99.90
15630;DHT22;7914;50.842;0.166;2022-12-11T00:35:38;-3.10;99.90
15630;DHT22;7914;50.842;0.166;2022-12-11T00:38:04;-3.00;99.90
15630;DHT22;7914;50.842;0.166;2022-12-11T00:40:36;-2.90;99.90
15630;DHT22;7914;50.842;0.166;2022-12-11T00:43:02;-2.90;99.90
15630;DHT22;7914;50.842;0.166;2022-12-11T00:45:28;-2.90;99.90
15630;DHT22;7914;50.842;0.166;2022-12-11T00:47:54;-2.90;99.90
15630;DHT22;7914;50.842;0.166;2022-12-11T00:50:20;-2.80;99.90
15630;DHT22;7914;50.842;0.166;2022-12-11T00:52:45;-2.80;99.90
15630;DHT22;7914;50.842;0.166;2022-12-11T00:55:11;-2.90;99.90
15630;DHT22;7914;50.842;0.166;2022-12-11T00:57:38;-3.00;99.90
15630;DHT22;7914;50.842;0.166;2022-12-11T01:00:04;-3.10;99.90
15630;DHT22;7914;50.842;0.166;2022-12-11T01:02:33;-3.10;99.90
15630;DHT22;7914;50.842;0.166;2022-12-11T01:04:59;-3.10;99.90
15630;DHT22;7914;50.842;0.166;2022-12-11T01:07:25;-3.10;99.90
15630;DHT22;7914;50.842;0.166;2022-12-11T01:09:51;-3.20;99.90
15630;DHT22;7914;50.842;0.166;2022-12-11T01:12:35;-3.20;99.90
15630;DHT22;7914;50.842;0.166;2022-12-11T01:15:01;-3.20;99.90
15630;DHT22;7914;50.842;0.166;2022-12-11T01:17:26;-3.20;99.90
15630;DHT22;7914;50.842;0.166;2022-12-11T01:19:53;-3.20;99.90
15630;DHT22;7914;50.842;0.166;2022-12-11T01:22:19;-3.20;99.90
15630;DHT22;7914;50.842;0.166;2022-12-11T01:24:45;-3.20;99.90
15630;DHT22;7914;50.842;0.166;2022-12-11T01:27:10;-3.20;99.90
15630;DHT22;7914;50.842;0.166;2022-12-11T01:29:36;-3.20;99.90
15630;DHT22;7914;50.842;0.166;2022-12-11T01:32:02;-3.20;99.90
15630;DHT22;7914;50.842;0.166;2022-12-11T01:34:29;-3.20;99.90
15630;DHT22;7914;50.842;0.166;2022-12-11T01:36:55;-3.30;99.90
15630;DHT22;7914;50.842;0.166;2022-12-11T01:39:20;-3.30;99.90
15630;DHT22;7914;50.842;0.166;2022-12-11T01:41:46;-3.30;99.90
15630;DHT22;7914;50.842;0.166;2022-12-11T01:46:41;-3.30;99.90
15630;DHT22;7914;50.842;0.166;2022-12-11T01:49:10;-3.30;99.90
15630;DHT22;7914;50.842;0.166;2022-12-11T01:51:48;-3.30;99.90
15630;DHT22;7914;50.842;0.166;2022-12-11T01:54:16;-3.30;99.90
15630;DHT22;7914;50.842;0.166;2022-12-11T01:56:44;-3.40;99.90
15630;DHT22;7914;50.842;0.166;2022-12-11T01:59:14;-3.40;99.90
15630;DHT22;7914;50.842;0.166;2022-12-11T02:01:48;-3.30;99.90
15630;DHT22;7914;50.842;0.166;2022-12-11T02:04:16;-3.30;99.90
15630;DHT22;7914;50.842;0.166;2022-12-11T02:06:46;-3.30;99.90
15630;DHT22;7914;50.842;0.166;2022-12-11T02:09:24;-3.40;99.90
15630;DHT22;7914;50.842;0.166;2022-12-11T02:12:28;-3.40;99.90
15630;DHT22;7914;50.842;0.166;2022-12-11T02:18:41;-3.50;99.90
15630;DHT22;7914;50.842;0.166;2022-12-11T02:21:25;-3.50;99.90
15630;DHT22;7914;50.842;0.166;2022-12-11T02:26:58;-3.60;99.90
15630;DHT22;7914;50.842;0.166;2022-12-11T02:30:00;-3.60;99.90
15630;DHT22;7914;50.842;0.166;2022-12-11T02:35:07;-3.50;99.90
15630;DHT22;7914;50.842;0.166;2022-12-11T02:37:35;-3.60;99.90
15630;DHT22;7914;50.842;0.166;2022-12-11T02:40:02;-3.60;99.90
15630;DHT22;7914;50.842;0.166;2022-12-11T02:42:30;-3.70;99.90
15630;DHT22;7914;50.842;0.166;2022-12-11T02:44:58;-3.70;99.90
15630;DHT22;7914;50.842;0.166;2022-12-11T02:47:26;-3.70;99.90
15630;DHT22;7914;50.842;0.166;2022-12-11T02:49:55;-3.70;99.90
15630;DHT22;7914;50.842;0.166;2022-12-11T02:52:23;-3.70;99.90
15630;DHT22;7914;50.842;0.166;2022-12-11T02:54:51;-3.60;99.90
15630;DHT22;7914;50.842;0.166;2022-12-11T02:57:35;-3.70;99.90
15630;DHT22;7914;50.842;0.166;2022-12-11T03:00:03;-3.70;99.90
15630;DHT22;7914;50.842;0.166;2022-12-11T03:02:29;-3.70;99.90
15630;DHT22;7914;50.842;0.166;2022-12-11T03:04:55;-3.80;99.90
15630;DHT22;7914;50.842;0.166;2022-12-11T03:07:25;-3.80;99.90
15630;DHT22;7914;50.842;0.166;2022-12-11T03:09:51;-3.80;99.90
15630;DHT22;7914;50.842;0.166;2022-12-11T03:12:28;-3.80;99.90
15630;DHT22;7914;50.842;0.166;2022-12-11T03:14:54;-3.70;99.90
15630;DHT22;7914;50.842;0.166;2022-12-11T03:17:25;-3.70;99.90
15630;DHT22;7914;50.842;0.166;2022-12-11T03:22:46;-3.70;99.90
15630;DHT22;7914;50.842;0.166;2022-12-11T03:25:19;-3.80;99.90
15630;DHT22;7914;50.842;0.166;2022-12-11T03:27:57;-3.80;99.90
15630;DHT22;7914;50.842;0.166;2022-12-11T03:30:24;-4.00;99.90
15630;DHT22;7914;50.842;0.166;2022-12-11T03:32:58;-4.10;99.90
15630;DHT22;7914;50.842;0.166;2022-12-11T03:35:50;-4.20;99.90
15630;DHT22;7914;50.842;0.166;2022-12-11T03:38:39;-4.10;99.90
15630;DHT22;7914;50.842;0.166;2022-12-11T03:41:08;-4.20;99.90
15630;DHT22;7914;50.842;0.166;2022-12-11T03:43:36;-4.10;99.90
15630;DHT22;7914;50.842;0.166;2022-12-11T03:46:02;-4.10;99.90
15630;DHT22;7914;50.842;0.166;2022-12-11T03:48:35;-4.10;99.90
15630;DHT22;7914;50.842;0.166;2022-12-11T03:51:05;-4.10;99.90
15630;DHT22;7914;50.842;0.166;2022-12-11T03:53:33;-4.10;99.90
15630;DHT22;7914;50.842;0.166;2022-12-11T03:56:01;-4.10;99.90
15630;DHT22;7914;50.842;0.166;2022-12-11T03:58:28;-4.10;99.90
15630;DHT22;7914;50.842;0.166;2022-12-11T04:00:54;-4.10;99.90
15630;DHT22;7914;50.842;0.166;2022-12-11T04:03:19;-4.10;99.90
15630;DHT22;7914;50.842;0.166;2022-12-11T04:05:47;-4.10;99.90
15630;DHT22;7914;50.842;0.166;2022-12-11T04:08:14;-4.00;99.90
15630;DHT22;7914;50.842;0.166;2022-12-11T04:10:40;-4.10;99.90
15630;DHT22;7914;50.842;0.166;2022-12-11T04:13:06;-4.10;99.90
15630;DHT22;7914;50.842;0.166;2022-12-11T04:15:32;-4.20;99.90
15630;DHT22;7914;50.842;0.166;2022-12-11T04:17:58;-4.20;99.90
15630;DHT22;7914;50.842;0.166;2022-12-11T04:20:42;-4.30;99.90
15630;DHT22;7914;50.842;0.166;2022-12-11T04:23:26;-4.20;99.90
15630;DHT22;7914;50.842;0.166;2022-12-11T04:26:15;-4.20;99.90
15630;DHT22;7914;50.842;0.166;2022-12-11T04:28:42;-4.20;99.90
15630;DHT22;7914;50.842;0.166;2022-12-11T04:31:13;-4.20;99.90
15630;DHT22;7914;50.842;0.166;2022-12-11T04:33:39;-4.20;99.90
15630;DHT22;7914;50.842;0.166;2022-12-11T04:36:06;-4.20;99.90
15630;DHT22;7914;50.842;0.166;2022-12-11T04:38:31;-4.10;99.90
15630;DHT22;7914;50.842;0.166;2022-12-11T04:40:59;-4.00;99.90
15630;DHT22;7914;50.842;0.166;2022-12-11T04:43:24;-4.00;99.90
15630;DHT22;7914;50.842;0.166;2022-12-11T04:45:50;-4.00;99.90
15630;DHT22;7914;50.842;0.166;2022-12-11T04:48:24;-4.10;99.90
15630;DHT22;7914;50.842;0.166;2022-12-11T04:50:49;-4.10;99.90
15630;DHT22;7914;50.842;0.166;2022-12-11T04:53:15;-4.10;99.90
15630;DHT22;7914;50.842;0.166;2022-12-11T04:55:41;-4.10;99.90
15630;DHT22;7914;50.842;0.166;2022-12-11T04:58:06;-4.10;99.90
15630;DHT22;7914;50.842;0.166;2022-12-11T05:00:32;-4.10;99.90
15630;DHT22;7914;50.842;0.166;2022-12-11T05:02:58;-4.10;99.90
15630;DHT22;7914;50.842;0.166;2022-12-11T05:05:23;-4.10;99.90
15630;DHT22;7914;50.842;0.166;2022-12-11T05:07:49;-4.10;99.90
15630;DHT22;7914;50.842;0.166;2022-12-11T05:10:14;-4.10;99.90
15630;DHT22;7914;50.842;0.166;2022-12-11T05:12:40;-3.90;99.90
15630;DHT22;7914;50.842;0.166;2022-12-11T05:15:06;-3.90;99.90
15630;DHT22;7914;50.842;0.166;2022-12-11T05:17:32;-3.90;99.90
15630;DHT22;7914;50.842;0.166;2022-12-11T05:19:58;-3.90;99.90
15630;DHT22;7914;50.842;0.166;2022-12-11T05:22:24;-3.90;99.90
15630;DHT22;7914;50.842;0.166;2022-12-11T05:24:49;-4.00;99.90
15630;DHT22;7914;50.842;0.166;2022-12-11T05:27:15;-4.00;99.90
15630;DHT22;7914;50.842;0.166;2022-12-11T05:29:41;-4.00;99.90
15630;DHT22;7914;50.842;0.166;2022-12-11T05:32:06;-4.00;99.90
15630;DHT22;7914;50.842;0.166;2022-12-11T05:34:32;-4.00;99.90
15630;DHT22;7914;50.842;0.166;2022-12-11T05:36:58;-4.00;99.90
15630;DHT22;7914;50.842;0.166;2022-12-11T05:39:23;-4.00;99.90
15630;DHT22;7914;50.842;0.166;2022-12-11T05:41:49;-4.00;99.90
15630;DHT22;7914;50.842;0.166;2022-12-11T05:44:15;-4.00;99.90
15630;DHT22;7914;50.842;0.166;2022-12-11T05:46:40;-4.00;99.90
15630;DHT22;7914;50.842;0.166;2022-12-11T05:49:06;-4.00;99.90
15630;DHT22;7914;50.842;0.166;2022-12-11T05:51:32;-4.10;99.90
15630;DHT22;7914;50.842;0.166;2022-12-11T05:54:02;-4.10;99.90
15630;DHT22;7914;50.842;0.166;2022-12-11T05:56:30;-4.20;99.90
15630;DHT22;7914;50.842;0.166;2022-12-11T05:58:57;-4.20;99.90
15630;DHT22;7914;50.842;0.166;2022-12-11T06:01:27;-4.20;99.90
15630;DHT22;7914;50.842;0.166;2022-12-11T06:03:54;-4.30;99.90
15630;DHT22;7914;50.842;0.166;2022-12-11T06:06:20;-4.30;99.90
15630;DHT22;7914;50.842;0.166;2022-12-11T06:08:49;-4.20;99.90
15630;DHT22;7914;50.842;0.166;2022-12-11T06:11:15;-4.20;99.90
15630;DHT22;7914;50.842;0.166;2022-12-11T06:13:41;-4.20;99.90
15630;DHT22;7914;50.842;0.166;2022-12-11T06:16:08;-4.20;99.90
15630;DHT22;7914;50.842;0.166;2022-12-11T06:18:36;-4.30;99.90
15630;DHT22;7914;50.842;0.166;2022-12-11T06:21:16;-4.30;99.90
15630;DHT22;7914;50.842;0.166;2022-12-11T06:23:43;-4.30;99.90
15630;DHT22;7914;50.842;0.166;2022-12-11T06:26:10;-4.30;99.90
15630;DHT22;7914;50.842;0.166;2022-12-11T06:28:36;-4.30;99.90
15630;DHT22;7914;50.842;0.166;2022-12-11T06:31:03;-4.30;99.90
15630;DHT22;7914;50.842;0.166;2022-12-11T06:33:29;-4.40;99.90
15630;DHT22;7914;50.842;0.166;2022-12-11T06:35:54;-4.30;99.90
15630;DHT22;7914;50.842;0.166;2022-12-11T06:38:21;-4.40;99.90
15630;DHT22;7914;50.842;0.166;2022-12-11T06:40:54;-4.40;99.90
15630;DHT22;7914;50.842;0.166;2022-12-11T06:43:20;-4.50;99.90
15630;DHT22;7914;50.842;0.166;2022-12-11T06:45:45;-4.50;99.90
15630;DHT22;7914;50.842;0.166;2022-12-11T06:48:11;-4.50;99.90
15630;DHT22;7914;50.842;0.166;2022-12-11T06:50:37;-4.40;99.90
15630;DHT22;7914;50.842;0.166;2022-12-11T06:53:03;-4.40;99.90
15630;DHT22;7914;50.842;0.166;2022-12-11T06:55:29;-4.30;99.90
15630;DHT22;7914;50.842;0.166;2022-12-11T06:57:54;-4.40;99.90
15630;DHT22;7914;50.842;0.166;2022-12-11T07:00:20;-4.40;99.90
15630;DHT22;7914;50.842;0.166;2022-12-11T07:02:46;-4.40;99.90
15630;DHT22;7914;50.842;0.166;2022-12-11T07:05:11;-4.40;99.90
15630;DHT22;7914;50.842;0.166;2022-12-11T07:07:37;-4.40;99.90
15630;DHT22;7914;50.842;0.166;2022-12-11T07:10:03;-4.40;99.90
15630;DHT22;7914;50.842;0.166;2022-12-11T07:12:29;-4.30;99.90
15630;DHT22;7914;50.842;0.166;2022-12-11T07:14:55;-4.30;99.90
15630;DHT22;7914;50.842;0.166;2022-12-11T07:17:20;-4.30;99.90
15630;DHT22;7914;50.842;0.166;2022-12-11T07:19:46;-4.30;99.90
15630;DHT22;7914;50.842;0.166;2022-12-11T07:22:12;-4.20;99.90
15630;DHT22;7914;50.842;0.166;2022-12-11T07:24:37;-4.20;99.90
15630;DHT22;7914;50.842;0.166;2022-12-11T07:27:03;-4.20;99.90
15630;DHT22;7914;50.842;0.166;2022-12-11T07:29:29;-4.10;99.90
15630;DHT22;7914;50.842;0.166;2022-12-11T07:31:54;-4.20;99.90
15630;DHT22;7914;50.842;0.166;2022-12-11T07:34:20;-4.20;99.90
15630;DHT22;7914;50.842;0.166;2022-12-11T07:36:46;-4.20;99.90
15630;DHT22;7914;50.842;0.166;2022-12-11T07:39:12;-4.20;99.90
15630;DHT22;7914;50.842;0.166;2022-12-11T07:41:38;-4.20;99.90
15630;DHT22;7914;50.842;0.166;2022-12-11T07:44:04;-4.20;99.90
15630;DHT22;7914;50.842;0.166;2022-12-11T07:46:31;-4.20;99.90
15630;DHT22;7914;50.842;0.166;2022-12-11T07:48:58;-4.20;99.90
15630;DHT22;7914;50.842;0.166;2022-12-11T07:51:30;-4.20;99.90
15630;DHT22;7914;50.842;0.166;2022-12-11T07:53:59;-4.20;99.90
15630;DHT22;7914;50.842;0.166;2022-12-11T07:56:26;-4.20;99.90
15630;DHT22;7914;50.842;0.166;2022-12-11T07:58:52;-4.20;99.90
15630;DHT22;7914;50.842;0.166;2022-12-11T08:01:21;-4.20;99.90
15630;DHT22;7914;50.842;0.166;2022-12-11T08:03:47;-4.20;99.90
15630;DHT22;7914;50.842;0.166;2022-12-11T08:06:13;-4.20;99.90
15630;DHT22;7914;50.842;0.166;2022-12-11T08:08:39;-4.20;99.90
15630;DHT22;7914;50.842;0.166;2022-12-11T08:11:09;-4.30;99.90
15630;DHT22;7914;50.842;0.166;2022-12-11T08:13:36;-4.30;99.90
15630;DHT22;7914;50.842;0.166;2022-12-11T08:16:10;-4.20;99.90
15630;DHT22;7914;50.842;0.166;2022-12-11T08:18:38;-4.20;99.90
15630;DHT22;7914;50.842;0.166;2022-12-11T08:21:31;-4.20;99.90
15630;DHT22;7914;50.842;0.166;2022-12-11T08:23:56;-4.20;99.90
15630;DHT22;7914;50.842;0.166;2022-12-11T08:26:25;-4.20;99.90
15630;DHT22;7914;50.842;0.166;2022-12-11T08:28:51;-4.10;99.90
15630;DHT22;7914;50.842;0.166;2022-12-11T08:31:17;-4.10;99.90
15630;DHT22;7914;50.842;0.166;2022-12-11T08:33:43;-4.10;99.90
15630;DHT22;7914;50.842;0.166;2022-12-11T08:36:12;-4.10;99.90
15630;DHT22;7914;50.842;0.166;2022-12-11T08:38:38;-4.10;99.90
15630;DHT22;7914;50.842;0.166;2022-12-11T08:41:17;-4.00;99.90
15630;DHT22;7914;50.842;0.166;2022-12-11T08:43:43;-4.00;99.90
15630;DHT22;7914;50.842;0.166;2022-12-11T08:46:10;-3.90;99.90
15630;DHT22;7914;50.842;0.166;2022-12-11T08:48:37;-3.90;99.90
15630;DHT22;7914;50.842;0.166;2022-12-11T08:51:05;-3.80;99.90
15630;DHT22;7914;50.842;0.166;2022-12-11T08:53:32;-3.80;99.90
15630;DHT22;7914;50.842;0.166;2022-12-11T08:56:05;-3.70;99.90
15630;DHT22;7914;50.842;0.166;2022-12-11T08:58:31;-3.70;99.90
15630;DHT22;7914;50.842;0.166;2022-12-11T09:00:57;-3.60;99.90
15630;DHT22;7914;50.842;0.166;2022-12-11T09:03:23;-3.50;99.90
15630;DHT22;7914;50.842;0.166;2022-12-11T09:05:49;-3.50;99.90
15630;DHT22;7914;50.842;0.166;2022-12-11T09:08:15;-3.40;99.90
15630;DHT22;7914;50.842;0.166;2022-12-11T09:10:41;-3.30;99.90
15630;DHT22;7914;50.842;0.166;2022-12-11T09:13:07;-3.30;99.90
15630;DHT22;7914;50.842;0.166;2022-12-11T09:15:33;-3.20;99.90
15630;DHT22;7914;50.842;0.166;2022-12-11T09:17:58;-3.10;99.90
15630;DHT22;7914;50.842;0.166;2022-12-11T09:20:24;-3.00;99.90
15630;DHT22;7914;50.842;0.166;2022-12-11T09:22:50;-3.00;99.90
15630;DHT22;7914;50.842;0.166;2022-12-11T09:25:15;-3.00;99.90
15630;DHT22;7914;50.842;0.166;2022-12-11T09:27:41;-3.00;99.90
15630;DHT22;7914;50.842;0.166;2022-12-11T09:30:07;-2.80;99.90
15630;DHT22;7914;50.842;0.166;2022-12-11T09:32:33;-2.60;99.90
15630;DHT22;7914;50.842;0.166;2022-12-11T09:34:59;-2.70;99.90
15630;DHT22;7914;50.842;0.166;2022-12-11T09:37:24;-2.60;99.90
15630;DHT22;7914;50.842;0.166;2022-12-11T09:39:50;-2.70;99.90
15630;DHT22;7914;50.842;0.166;2022-12-11T09:42:20;-2.70;99.90
15630;DHT22;7914;50.842;0.166;2022-12-11T09:44:57;-2.60;99.90
15630;DHT22;7914;50.842;0.166;2022-12-11T09:47:26;-2.50;99.90
15630;DHT22;7914;50.842;0.166;2022-12-11T09:50:03;-2.40;99.90
15630;DHT22;7914;50.842;0.166;2022-12-11T09:53:19;-2.40;99.90
15630;DHT22;7914;50.842;0.166;2022-12-11T09:55:31;-2.30;99.90
15630;DHT22;7914;50.842;0.166;2022-12-11T10:00:47;-2.20;99.90
15630;DHT22;7914;50.842;0.166;2022-12-11T10:06:27;-2.00;99.90
15630;DHT22;7914;50.842;0.166;2022-12-11T10:17:27;-1.70;99.90
15630;DHT22;7914;50.842;0.166;2022-12-11T10:19:52;-1.70;99.90
15630;DHT22;7914;50.842;0.166;2022-12-11T10:22:26;-1.60;99.90
15630;DHT22;7914;50.842;0.166;2022-12-11T10:24:56;-1.50;99.90
15630;DHT22;7914;50.842;0.166;2022-12-11T10:27:31;-1.50;99.90
15630;DHT22;7914;50.842;0.166;2022-12-11T10:33:06;-1.50;99.90
15630;DHT22;7914;50.842;0.166;2022-12-11T10:35:38;-1.40;99.90
15630;DHT22;7914;50.842;0.166;2022-12-11T10:38:28;-1.40;99.90
15630;DHT22;7914;50.842;0.166;2022-12-11T10:41:00;-1.30;99.90
15630;DHT22;7914;50.842;0.166;2022-12-11T10:43:44;-1.30;99.90
15630;DHT22;7914;50.842;0.166;2022-12-11T10:46:25;-1.20;99.90
15630;DHT22;7914;50.842;0.166;2022-12-11T10:48:59;-1.10;99.90
15630;DHT22;7914;50.842;0.166;2022-12-11T10:51:35;-1.10;99.90
15630;DHT22;7914;50.842;0.166;2022-12-11T10:54:27;-1.00;99.90
15630;DHT22;7914;50.842;0.166;2022-12-11T10:56:53;-1.00;99.90
15630;DHT22;7914;50.842;0.166;2022-12-11T10:59:24;-0.90;99.90
15630;DHT22;7914;50.842;0.166;2022-12-11T11:01:52;-0.80;99.90
15630;DHT22;7914;50.842;0.166;2022-12-11T11:04:22;-0.70;99.90
15630;DHT22;7914;50.842;0.166;2022-12-11T11:07:28;-0.70;99.90
15630;DHT22;7914;50.842;0.166;2022-12-11T11:12:41;-0.60;99.90
15630;DHT22;7914;50.842;0.166;2022-12-11T11:17:46;-0.70;99.90
15630;DHT22;7914;50.842;0.166;2022-12-11T11:20:18;-0.60;99.90
15630;DHT22;7914;50.842;0.166;2022-12-11T11:22:55;-0.50;99.90
15630;DHT22;7914;50.842;0.166;2022-12-11T11:25:23;-0.50;99.90
15630;DHT22;7914;50.842;0.166;2022-12-11T11:27:53;-0.40;99.90
15630;DHT22;7914;50.842;0.166;2022-12-11T11:32:56;-0.60;99.90
15630;DHT22;7914;50.842;0.166;2022-12-11T11:35:25;-0.60;99.90
15630;DHT22;7914;50.842;0.166;2022-12-11T11:40:50;-0.70;99.90
15630;DHT22;7914;50.842;0.166;2022-12-11T11:43:37;-0.70;99.90
15630;DHT22;7914;50.842;0.166;2022-12-11T11:46:06;-0.60;99.90
15630;DHT22;7914;50.842;0.166;2022-12-11T11:51:42;-0.50;99.90
15630;DHT22;7914;50.842;0.166;2022-12-11T11:54:33;-0.40;99.90
15630;DHT22;7914;50.842;0.166;2022-12-11T11:57:34;-0.40;99.90
15630;DHT22;7914;50.842;0.166;2022-12-11T12:00:28;-0.20;99.90
15630;DHT22;7914;50.842;0.166;2022-12-11T12:03:08;-0.10;99.90
15630;DHT22;7914;50.842;0.166;2022-12-11T12:06:14;0.00;99.90
15630;DHT22;7914;50.842;0.166;2022-12-11T12:11:37;0.10;99.90
15630;DHT22;7914;50.842;0.166;2022-12-11T12:30:09;0.20;99.90
15630;DHT22;7914;50.842;0.166;2022-12-11T12:35:36;0.20;99.90
15630;DHT22;7914;50.842;0.166;2022-12-11T12:49:15;0.40;99.90
15630;DHT22;7914;50.842;0.166;2022-12-11T12:51:43;0.50;99.90
15630;DHT22;7914;50.842;0.166;2022-12-11T12:54:14;0.40;99.90
15630;DHT22;7914;50.842;0.166;2022-12-11T12:56:41;0.50;99.90
15630;DHT22;7914;50.842;0.166;2022-12-11T12:59:38;0.50;99.90
15630;DHT22;7914;50.842;0.166;2022-12-11T13:02:04;0.40;99.90
15630;DHT22;7914;50.842;0.166;2022-12-11T13:04:40;0.40;99.90
15630;DHT22;7914;50.842;0.166;2022-12-11T13:07:21;0.40;99.90
15630;DHT22;7914;50.842;0.166;2022-12-11T13:10:00;0.40;99.90
15630;DHT22;7914;50.842;0.166;2022-12-11T13:12:33;0.40;99.90
15630;DHT22;7914;50.842;0.166;2022-12-11T13:14:59;0.40;99.90
15630;DHT22;7914;50.842;0.166;2022-12-11T13:17:37;0.40;99.90
15630;DHT22;7914;50.842;0.166;2022-12-11T13:20:18;0.40;99.90
15630;DHT22;7914;50.842;0.166;2022-12-11T13:22:49;0.40;99.90
15630;DHT22;7914;50.842;0.166;2022-12-11T13:25:30;0.40;99.90
15630;DHT22;7914;50.842;0.166;2022-12-11T13:28:17;0.40;99.90
15630;DHT22;7914;50.842;0.166;2022-12-11T13:30:44;0.30;99.90
15630;DHT22;7914;50.842;0.166;2022-12-11T13:33:17;0.40;99.90
15630;DHT22;7914;50.842;0.166;2022-12-11T13:35:44;0.40;99.90
15630;DHT22;7914;50.842;0.166;2022-12-11T13:38:18;0.50;99.90
15630;DHT22;7914;50.842;0.166;2022-12-11T13:40:48;0.50;99.90
15630;DHT22;7914;50.842;0.166;2022-12-11T13:43:24;0.60;99.90
15630;DHT22;7914;50.842;0.166;2022-12-11T13:45:56;0.70;99.90
15630;DHT22;7914;50.842;0.166;2022-12-11T13:48:35;0.70;99.90
15630;DHT22;7914;50.842;0.166;2022-12-11T13:51:02;0.80;99.90
15630;DHT22;7914;50.842;0.166;2022-12-11T13:53:29;0.70;99.90
15630;DHT22;7914;50.842;0.166;2022-12-11T13:56:06;0.80;99.90
15630;DHT22;7914;50.842;0.166;2022-12-11T13:58:38;0.80;99.90
15630;DHT22;7914;50.842;0.166;2022-12-11T14:01:08;0.90;99.90
15630;DHT22;7914;50.842;0.166;2022-12-11T14:03:38;0.90;99.90
15630;DHT22;7914;50.842;0.166;2022-12-11T14:06:08;1.00;99.90
15630;DHT22;7914;50.842;0.166;2022-12-11T14:08:36;1.00;99.90
15630;DHT22;7914;50.842;0.166;2022-12-11T14:11:03;1.00;99.90
15630;DHT22;7914;50.842;0.166;2022-12-11T14:13:35;1.00;99.90
15630;DHT22;7914;50.842;0.166;2022-12-11T14:16:02;1.10;99.90
15630;DHT22;7914;50.842;0.166;2022-12-11T14:18:33;1.10;99.90
15630;DHT22;7914;50.842;0.166;2022-12-11T14:21:02;1.20;99.90
15630;DHT22;7914;50.842;0.166;2022-12-11T14:23:34;1.20;99.90
15630;DHT22;7914;50.842;0.166;2022-12-11T14:26:16;1.30;99.90
15630;DHT22;7914;50.842;0.166;2022-12-11T14:28:42;1.30;99.90
15630;DHT22;7914;50.842;0.166;2022-12-11T14:31:08;1.40;99.90
15630;DHT22;7914;50.842;0.166;2022-12-11T14:33:39;1.50;99.90
15630;DHT22;7914;50.842;0.166;2022-12-11T14:36:07;1.40;99.90
15630;DHT22;7914;50.842;0.166;2022-12-11T14:38:37;1.40;99.90
15630;DHT22;7914;50.842;0.166;2022-12-11T14:41:39;1.40;99.90
15630;DHT22;7914;50.842;0.166;2022-12-11T14:44:10;1.30;99.90
15630;DHT22;7914;50.842;0.166;2022-12-11T14:46:46;1.30;99.90
15630;DHT22;7914;50.842;0.166;2022-12-11T14:49:28;1.20;99.90
15630;DHT22;7914;50.842;0.166;2022-12-11T14:51:57;1.20;99.90
15630;DHT22;7914;50.842;0.166;2022-12-11T14:54:30;1.10;99.90
15630;DHT22;7914;50.842;0.166;2022-12-11T14:56:59;1.10;99.90
15630;DHT22;7914;50.842;0.166;2022-12-11T14:59:28;1.00;99.90
15630;DHT22;7914;50.842;0.166;2022-12-11T15:02:36;0.90;99.90
15630;DHT22;7914;50.842;0.166;2022-12-11T15:05:14;0.90;99.90
15630;DHT22;7914;50.842;0.166;2022-12-11T15:07:57;0.80;99.90
15630;DHT22;7914;50.842;0.166;2022-12-11T15:10:36;0.80;99.90
15630;DHT22;7914;50.842;0.166;2022-12-11T15:13:06;0.80;99.90
15630;DHT22;7914;50.842;0.166;2022-12-11T15:15:37;0.80;99.90
15630;DHT22;7914;50.842;0.166;2022-12-11T15:18:24;0.70;99.90
15630;DHT22;7914;50.842;0.166;2022-12-11T15:20:59;0.80;99.90
15630;DHT22;7914;50.842;0.166;2022-12-11T15:23:26;0.80;99.90
15630;DHT22;7914;50.842;0.166;2022-12-11T15:25:54;0.80;99.90
15630;DHT22;7914;50.842;0.166;2022-12-11T15:28:28;0.70;99.90
15630;DHT22;7914;50.842;0.166;2022-12-11T15:31:03;0.70;99.90
15630;DHT22;7914;50.842;0.166;2022-12-11T15:33:29;0.60;99.90
15630;DHT22;7914;50.842;0.166;2022-12-11T15:35:59;0.60;99.90
15630;DHT22;7914;50.842;0.166;2022-12-11T15:38:35;0.60;99.90
15630;DHT22;7914;50.842;0.166;2022-12-11T15:41:02;0.60;99.90
15630;DHT22;7914;50.842;0.166;2022-12-11T15:43:31;0.60;99.90
15630;DHT22;7914;50.842;0.166;2022-12-11T15:46:00;0.60;99.90
15630;DHT22;7914;50.842;0.166;2022-12-11T15:48:26;0.60;99.90
15630;DHT22;7914;50.842;0.166;2022-12-11T15:50:52;0.60;99.90
15630;DHT22;7914;50.842;0.166;2022-12-11T15:53:17;0.60;99.90
15630;DHT22;7914;50.842;0.166;2022-12-11T15:55:44;0.60;99.90
15630;DHT22;7914;50.842;0.166;2022-12-11T15:58:16;0.60;99.90
15630;DHT22;7914;50.842;0.166;2022-12-11T16:00:42;0.60;99.90
15630;DHT22;7914;50.842;0.166;2022-12-11T16:03:12;0.60;99.90
15630;DHT22;7914;50.842;0.166;2022-12-11T16:05:39;0.60;99.90
15630;DHT22;7914;50.842;0.166;2022-12-11T16:08:05;0.60;99.90
15630;DHT22;7914;50.842;0.166;2022-12-11T16:10:30;0.50;99.90
15630;DHT22;7914;50.842;0.166;2022-12-11T16:12:58;0.60;99.90
15630;DHT22;7914;50.842;0.166;2022-12-11T16:15:25;0.50;99.90
15630;DHT22;7914;50.842;0.166;2022-12-11T16:18:02;0.50;99.90
15630;DHT22;7914;50.842;0.166;2022-12-11T16:20:29;0.50;99.90
15630;DHT22;7914;50.842;0.166;2022-12-11T16:22:56;0.60;99.90
15630;DHT22;7914;50.842;0.166;2022-12-11T16:25:22;0.60;99.90
15630;DHT22;7914;50.842;0.166;2022-12-11T16:27:47;0.60;99.90
15630;DHT22;7914;50.842;0.166;2022-12-11T16:30:13;0.50;99.90
15630;DHT22;7914;50.842;0.166;2022-12-11T16:32:39;0.60;99.90
15630;DHT22;7914;50.842;0.166;2022-12-11T16:35:04;0.60;99.90
15630;DHT22;7914;50.842;0.166;2022-12-11T16:37:30;0.60;99.90
15630;DHT22;7914;50.842;0.166;2022-12-11T16:39:56;0.60;99.90
15630;DHT22;7914;50.842;0.166;2022-12-11T16:42:21;0.60;99.90
15630;DHT22;7914;50.842;0.166;2022-12-11T16:44:47;0.60;99.90
15630;DHT22;7914;50.842;0.166;2022-12-11T16:47:13;0.60;99.90
15630;DHT22;7914;50.842;0.166;2022-12-11T16:49:39;0.60;99.90
15630;DHT22;7914;50.842;0.166;2022-12-11T16:52:06;0.60;99.90
15630;DHT22;7914;50.842;0.166;2022-12-11T16:54:31;0.60;99.90
15630;DHT22;7914;50.842;0.166;2022-12-11T16:56:57;0.60;99.90
15630;DHT22;7914;50.842;0.166;2022-12-11T16:59:22;0.60;99.90
15630;DHT22;7914;50.842;0.166;2022-12-11T17:01:48;0.60;99.90
15630;DHT22;7914;50.842;0.166;2022-12-11T17:04:15;0.70;99.90
15630;DHT22;7914;50.842;0.166;2022-12-11T17:06:40;0.60;99.90
15630;DHT22;7914;50.842;0.166;2022-12-11T17:09:06;0.70;99.90
15630;DHT22;7914;50.842;0.166;2022-12-11T17:11:32;0.60;99.90
15630;DHT22;7914;50.842;0.166;2022-12-11T17:13:59;1.70;99.90
15630;DHT22;7914;50.842;0.166;2022-12-11T17:16:26;0.60;99.90
15630;DHT22;7914;50.842;0.166;2022-12-11T17:18:55;0.50;99.90
15630;DHT22;7914;50.842;0.166;2022-12-11T17:21:22;0.60;99.90
15630;DHT22;7914;50.842;0.166;2022-12-11T17:23:48;0.60;99.90
15630;DHT22;7914;50.842;0.166;2022-12-11T17:26:14;0.50;99.90